createdAt,value
2023-02-07T00:01:36.727Z,0.13
2023-02-07T00:04:05.218Z,0.22
2023-02-07T00:06:36.471Z,0.16
2023-02-07T00:09:08.348Z,0.21
2023-02-07T00:11:37.927Z,0.03
2023-02-07T00:14:06.129Z,0.01
2023-02-07T00:16:34.582Z,0.15
2023-02-07T00:19:03.008Z,0.01
2023-02-07T00:21:31.357Z,0.06
2023-02-07T00:23:59.908Z,0.09
2023-02-07T00:26:30.767Z,-0.01
2023-02-07T00:28:59.441Z,0.02
2023-02-07T00:31:29.253Z,-0.10
2023-02-07T00:34:00.874Z,-0.15
2023-02-07T00:36:31.288Z,-0.19
2023-02-07T00:39:01.396Z,-0.28
2023-02-07T00:41:31.736Z,-0.38
2023-02-07T00:43:59.656Z,-0.30
2023-02-07T00:46:28.307Z,-0.52
2023-02-07T00:48:57.172Z,-0.48
2023-02-07T00:51:27.364Z,-0.50
2023-02-07T00:53:56.069Z,-0.58
2023-02-07T00:56:25.860Z,-0.64
2023-02-07T00:58:55.589Z,-0.62
2023-02-07T01:01:24.552Z,-0.57
2023-02-07T01:03:52.796Z,-0.68
2023-02-07T01:06:21.938Z,-0.58
2023-02-07T01:08:50.091Z,-0.66
2023-02-07T01:11:19.229Z,-0.71
2023-02-07T01:13:47.262Z,-0.71
2023-02-07T01:16:21.361Z,-0.81
2023-02-07T01:18:50.524Z,-0.85
2023-02-07T01:21:20.171Z,-0.80
2023-02-07T01:23:48.214Z,-0.79
2023-02-07T01:26:16.366Z,-0.82
2023-02-07T01:28:44.309Z,-0.88
2023-02-07T01:31:14.054Z,-0.83
2023-02-07T01:33:43.878Z,-0.86
2023-02-07T01:36:14.692Z,-0.91
2023-02-07T01:38:44.257Z,-0.92
2023-02-07T01:41:13.739Z,-1.06
2023-02-07T01:44:00.826Z,-1.00
2023-02-07T01:46:30.785Z,-1.03
2023-02-07T01:49:07.759Z,-0.95
2023-02-07T01:51:37.791Z,-0.94
2023-02-07T01:54:10.125Z,-1.03
2023-02-07T01:56:42.476Z,-1.05
2023-02-07T01:59:10.944Z,-1.11
2023-02-07T02:01:39.341Z,-1.12
2023-02-07T02:04:09.377Z,-1.10
2023-02-07T02:06:37.791Z,-1.07
2023-02-07T02:09:12.978Z,-1.10
2023-02-07T02:12:13.255Z,-1.19
2023-02-07T02:14:58.835Z,-1.10
2023-02-07T02:17:38.856Z,-1.14
2023-02-07T02:20:34.977Z,-1.22
2023-02-07T02:23:16.709Z,-1.25
2023-02-07T02:26:02.604Z,-1.26
2023-02-07T02:29:22.688Z,-1.35
2023-02-07T02:32:14.297Z,-1.35
2023-02-07T02:34:48.568Z,-1.36
2023-02-07T02:37:26.458Z,-1.36
2023-02-07T02:40:04.248Z,-1.42
2023-02-07T02:42:37.036Z,-1.36
2023-02-07T02:45:12.123Z,-1.48
2023-02-07T02:47:42.917Z,-1.40
2023-02-07T02:50:14.571Z,-1.53
2023-02-07T02:52:50.720Z,-1.57
2023-02-07T02:55:24.927Z,-1.52
2023-02-07T02:58:06.473Z,-1.55
2023-02-07T03:00:47.773Z,-1.57
2023-02-07T03:03:44.652Z,-1.58
2023-02-07T03:06:28.005Z,-1.59
2023-02-07T03:09:01.381Z,-1.69
2023-02-07T03:11:32.326Z,-1.58
2023-02-07T03:14:04.290Z,-1.57
2023-02-07T03:16:37.019Z,-1.59
2023-02-07T03:19:10.571Z,-1.58
2023-02-07T03:21:44.510Z,-1.64
2023-02-07T03:24:18.372Z,-1.66
2023-02-07T03:26:49.550Z,-1.70
2023-02-07T03:29:20.775Z,-1.72
2023-02-07T03:31:54.376Z,-1.70
2023-02-07T03:34:27.369Z,-1.81
2023-02-07T03:37:02.034Z,-1.77
2023-02-07T03:39:30.579Z,-1.77
2023-02-07T03:42:02.571Z,-1.75
2023-02-07T03:44:33.647Z,-1.81
2023-02-07T03:47:01.904Z,-1.74
2023-02-07T03:49:30.607Z,-1.74
2023-02-07T03:52:00.713Z,-1.70
2023-02-07T03:54:28.933Z,-1.72
2023-02-07T03:56:56.900Z,-1.74
2023-02-07T03:59:24.838Z,-1.82
2023-02-07T04:01:52.767Z,-1.84
2023-02-07T04:04:21.276Z,-1.78
2023-02-07T04:06:49.162Z,-1.83
2023-02-07T04:09:18.517Z,-1.89
2023-02-07T04:11:50.756Z,-1.82
2023-02-07T04:14:21.496Z,-1.88
2023-02-07T04:16:50.620Z,-1.92
2023-02-07T04:19:18.764Z,-1.75
2023-02-07T04:21:47.058Z,-1.83
2023-02-07T04:24:15.360Z,-1.87
2023-02-07T04:26:44.638Z,-1.87
2023-02-07T04:29:12.931Z,-1.88
2023-02-07T04:31:42.586Z,-1.90
2023-02-07T04:34:11.820Z,-1.87
2023-02-07T04:36:40.199Z,-1.88
2023-02-07T04:39:08.385Z,-1.85
2023-02-07T04:41:36.556Z,-1.91
2023-02-07T04:44:06.611Z,-1.95
2023-02-07T04:46:34.573Z,-2.00
2023-02-07T04:49:04.205Z,-1.97
2023-02-07T04:51:34.509Z,-1.95
2023-02-07T04:54:02.520Z,-2.07
2023-02-07T04:56:30.626Z,-2.06
2023-02-07T04:58:59.784Z,-1.99
2023-02-07T05:01:29.280Z,-2.06
2023-02-07T05:03:57.296Z,-2.01
2023-02-07T05:06:25.650Z,-2.02
2023-02-07T05:08:53.636Z,-2.12
2023-02-07T05:11:22.655Z,-2.11
2023-02-07T05:13:51.268Z,-2.04
2023-02-07T05:16:19.633Z,-2.03
2023-02-07T05:18:50.542Z,-2.07
2023-02-07T05:21:19.363Z,-2.09
2023-02-07T05:23:48.024Z,-2.06
2023-02-07T05:26:17.222Z,-2.04
2023-02-07T05:28:45.784Z,-2.08
2023-02-07T05:31:13.799Z,-2.17
2023-02-07T05:33:41.253Z,-2.18
2023-02-07T05:36:12.599Z,-2.19
2023-02-07T05:38:40.897Z,-2.16
2023-02-07T05:41:08.779Z,-2.15
2023-02-07T05:43:37.334Z,-2.20
2023-02-07T05:46:05.457Z,-2.18
2023-02-07T05:48:33.803Z,-2.25
2023-02-07T05:51:01.820Z,-2.27
2023-02-07T05:53:31.440Z,-2.27
2023-02-07T05:55:59.445Z,-2.28
2023-02-07T05:58:27.602Z,-2.23
2023-02-07T06:00:56.577Z,-2.21
2023-02-07T06:03:24.970Z,-2.20
2023-02-07T06:05:53.627Z,-2.17
2023-02-07T06:08:21.489Z,-2.17
2023-02-07T06:10:50.868Z,-2.20
2023-02-07T06:13:19.252Z,-2.21
2023-02-07T06:15:47.581Z,-2.25
2023-02-07T06:18:15.945Z,-2.25
2023-02-07T06:20:43.895Z,-2.24
2023-02-07T06:23:11.809Z,-2.26
2023-02-07T06:25:40.045Z,-2.38
2023-02-07T06:28:09.767Z,-2.43
2023-02-07T06:30:38.359Z,-2.43
2023-02-07T06:33:06.312Z,-2.43
2023-02-07T06:35:36.259Z,-2.46
2023-02-07T06:38:04.857Z,-2.47
2023-02-07T06:40:34.637Z,-2.59
2023-02-07T06:43:02.689Z,-2.54
2023-02-07T06:45:32.312Z,-2.67
2023-02-07T06:48:00.697Z,-2.69
2023-02-07T06:50:29.151Z,-2.69
2023-02-07T06:53:02.403Z,-2.72
2023-02-07T06:55:31.236Z,-2.72
2023-02-07T06:57:59.354Z,-2.72
2023-02-07T07:00:27.695Z,-2.73
2023-02-07T07:02:57.042Z,-2.73
2023-02-07T07:05:25.184Z,-2.71
2023-02-07T07:07:53.655Z,-2.70
2023-02-07T07:10:21.667Z,-2.70
2023-02-07T07:12:49.881Z,-2.70
2023-02-07T07:15:18.254Z,-2.70
2023-02-07T07:17:46.780Z,-2.70
2023-02-07T07:20:16.145Z,-2.67
2023-02-07T07:22:44.732Z,-2.71
2023-02-07T07:25:13.489Z,-2.67
2023-02-07T07:27:41.384Z,-2.63
2023-02-07T07:30:11.819Z,-2.67
2023-02-07T07:32:39.993Z,-2.66
2023-02-07T07:35:09.106Z,-2.61
2023-02-07T07:37:38.755Z,-2.63
2023-02-07T07:40:07.910Z,-2.58
2023-02-07T07:42:36.994Z,-2.59
2023-02-07T07:45:06.109Z,-2.58
2023-02-07T07:47:34.018Z,-2.58
2023-02-07T07:50:01.879Z,-2.55
2023-02-07T07:52:30.536Z,-2.52
2023-02-07T07:54:59.945Z,-2.55
2023-02-07T07:57:28.256Z,-2.56
2023-02-07T07:59:56.777Z,-2.65
2023-02-07T08:02:25.112Z,-2.75
2023-02-07T08:04:53.388Z,-2.82
2023-02-07T08:07:21.721Z,-2.75
2023-02-07T08:09:49.757Z,-2.81
2023-02-07T08:12:19.187Z,-2.82
2023-02-07T08:14:50.643Z,-2.79
2023-02-07T08:17:19.035Z,-2.74
2023-02-07T08:19:47.504Z,-2.64
2023-02-07T08:22:16.386Z,-2.51
2023-02-07T08:24:44.550Z,-2.43
2023-02-07T08:27:13.065Z,-2.37
2023-02-07T08:29:42.977Z,-2.28
2023-02-07T08:32:13.692Z,-2.17
2023-02-07T08:34:41.603Z,-2.06
2023-02-07T08:37:10.159Z,-1.97
2023-02-07T08:39:39.336Z,-1.91
2023-02-07T08:42:10.122Z,-1.91
2023-02-07T08:44:38.765Z,-1.83
2023-02-07T08:47:08.122Z,-1.70
2023-02-07T08:49:36.338Z,-1.59
2023-02-07T08:52:04.689Z,-1.51
2023-02-07T08:54:32.614Z,-1.35
2023-02-07T08:57:00.867Z,-1.27
2023-02-07T08:59:28.921Z,-1.23
2023-02-07T09:01:57.136Z,-1.26
2023-02-07T09:04:26.973Z,-1.07
2023-02-07T09:06:57.590Z,-1.01
2023-02-07T09:09:26.501Z,-0.93
2023-02-07T09:11:54.585Z,-0.77
2023-02-07T09:14:22.489Z,-0.69
2023-02-07T09:16:51.052Z,-0.48
2023-02-07T09:19:19.029Z,-0.35
2023-02-07T09:21:49.470Z,-0.17
2023-02-07T09:24:17.672Z,-0.07
2023-02-07T09:26:45.616Z,0.08
2023-02-07T09:29:15.362Z,0.23
2023-02-07T09:31:44.836Z,0.29
2023-02-07T09:34:13.213Z,0.40
2023-02-07T09:36:41.264Z,0.45
2023-02-07T09:39:11.045Z,0.46
2023-02-07T09:41:49.538Z,0.61
2023-02-07T09:44:21.198Z,0.65
2023-02-07T09:46:55.062Z,0.83
2023-02-07T09:49:33.807Z,0.92
2023-02-07T09:52:03.696Z,1.07
2023-02-07T09:54:39.518Z,1.13
2023-02-07T09:57:14.206Z,1.22
2023-02-07T09:59:53.548Z,1.32
2023-02-07T10:02:29.281Z,1.35
2023-02-07T10:05:02.017Z,1.25
2023-02-07T10:07:30.827Z,1.26
2023-02-07T10:10:00.446Z,1.40
2023-02-07T10:12:48.922Z,1.57
2023-02-07T10:15:39.005Z,1.73
2023-02-07T10:18:26.451Z,1.90
2023-02-07T10:21:02.651Z,1.97
2023-02-07T10:23:41.617Z,1.97
2023-02-07T10:26:28.304Z,2.09
2023-02-07T10:29:28.876Z,2.15
2023-02-07T10:32:00.653Z,2.33
2023-02-07T10:34:33.572Z,2.39
2023-02-07T10:37:03.695Z,2.51
2023-02-07T10:39:39.573Z,2.68
2023-02-07T10:42:15.393Z,2.79
2023-02-07T10:44:44.013Z,2.88
2023-02-07T10:47:17.881Z,3.06
2023-02-07T10:49:49.484Z,3.25
2023-02-07T10:52:29.365Z,3.22
2023-02-07T10:55:00.012Z,3.33
2023-02-07T10:57:31.115Z,3.51
2023-02-07T11:00:03.886Z,3.37
2023-02-07T11:02:52.096Z,3.46
2023-02-07T11:05:49.711Z,3.51
2023-02-07T11:08:22.993Z,3.51
2023-02-07T11:10:53.846Z,3.45
2023-02-07T11:13:27.360Z,3.45
2023-02-07T11:16:00.602Z,3.39
2023-02-07T11:18:45.008Z,3.51
2023-02-07T11:21:28.073Z,3.61
2023-02-07T11:24:01.337Z,3.83
2023-02-07T11:26:31.265Z,3.92
2023-02-07T11:29:08.028Z,3.97
2023-02-07T11:31:39.718Z,4.08
2023-02-07T11:34:24.298Z,3.97
2023-02-07T11:36:53.112Z,4.12
2023-02-07T11:39:23.533Z,4.05
2023-02-07T11:42:00.575Z,4.17
2023-02-07T11:44:32.355Z,4.22
2023-02-07T11:47:06.223Z,4.03
2023-02-07T11:49:43.067Z,3.89
2023-02-07T11:52:12.710Z,4.05
2023-02-07T11:54:42.267Z,4.07
2023-02-07T11:57:15.104Z,4.09
2023-02-07T11:59:52.154Z,3.98
2023-02-07T12:02:24.303Z,4.03
2023-02-07T12:04:54.818Z,4.18
2023-02-07T12:07:26.740Z,4.32
2023-02-07T12:09:57.194Z,4.43
2023-02-07T12:12:41.101Z,4.53
2023-02-07T12:15:18.794Z,4.56
2023-02-07T12:17:58.997Z,4.63
2023-02-07T12:20:30.269Z,4.78
2023-02-07T12:23:27.993Z,4.94
2023-02-07T12:25:56.683Z,5.02
2023-02-07T12:28:32.184Z,5.10
2023-02-07T12:31:12.825Z,4.99
2023-02-07T12:33:47.688Z,5.02
2023-02-07T12:36:21.214Z,5.09
2023-02-07T12:38:57.159Z,5.10
2023-02-07T12:41:31.025Z,5.22
2023-02-07T12:44:07.183Z,5.18
2023-02-07T12:46:47.821Z,5.15
2023-02-07T12:49:29.098Z,5.24
2023-02-07T12:52:16.076Z,5.31
2023-02-07T12:54:55.902Z,5.28
2023-02-07T12:57:36.261Z,5.38
2023-02-07T13:00:15.402Z,5.32
2023-02-07T13:02:58.163Z,5.35
2023-02-07T13:05:54.522Z,5.12
2023-02-07T13:08:32.211Z,5.26
2023-02-07T13:11:10.220Z,5.24
2023-02-07T13:13:48.658Z,5.23
2023-02-07T13:16:21.614Z,5.29
2023-02-07T13:18:58.480Z,5.43
2023-02-07T13:21:34.373Z,5.55
2023-02-07T13:24:05.983Z,5.74
2023-02-07T13:26:37.269Z,5.79
2023-02-07T13:29:08.029Z,5.90
2023-02-07T13:31:42.441Z,5.81
2023-02-07T13:34:16.482Z,5.90
2023-02-07T13:36:45.756Z,5.82
2023-02-07T13:39:23.552Z,5.87
2023-02-07T13:42:04.549Z,5.89
2023-02-07T13:44:40.044Z,5.85
2023-02-07T13:47:29.522Z,5.89
2023-02-07T13:50:08.454Z,5.89
2023-02-07T13:52:44.552Z,5.94
2023-02-07T13:55:25.528Z,5.89
2023-02-07T13:58:14.374Z,5.76
2023-02-07T14:01:01.905Z,5.56
2023-02-07T14:03:34.989Z,5.58
2023-02-07T14:06:27.210Z,5.68
2023-02-07T14:09:09.814Z,5.77
2023-02-07T14:11:41.415Z,5.82
2023-02-07T14:14:17.577Z,5.87
2023-02-07T14:16:49.949Z,5.93
2023-02-07T14:19:51.440Z,5.90
2023-02-07T14:22:25.032Z,5.94
2023-02-07T14:25:22.814Z,5.99
2023-02-07T14:28:21.523Z,5.90
2023-02-07T14:31:12.417Z,5.90
2023-02-07T14:33:41.193Z,5.73
2023-02-07T14:36:26.777Z,5.50
2023-02-07T14:39:23.505Z,5.53
2023-02-07T14:41:53.417Z,5.43
2023-02-07T14:44:28.922Z,5.43
2023-02-07T14:47:00.803Z,5.23
2023-02-07T14:49:34.390Z,5.05
2023-02-07T14:52:07.101Z,5.01
2023-02-07T14:54:43.461Z,4.85
2023-02-07T14:57:26.646Z,4.89
2023-02-07T15:00:04.922Z,4.79
2023-02-07T15:02:36.545Z,4.84
2023-02-07T15:05:24.533Z,4.80
2023-02-07T15:07:59.128Z,4.78
2023-02-07T15:10:32.781Z,4.71
2023-02-07T15:13:01.974Z,4.62
2023-02-07T15:15:31.268Z,4.60
2023-02-07T15:18:04.126Z,4.58
2023-02-07T15:20:35.618Z,4.50
2023-02-07T15:23:07.759Z,4.44
2023-02-07T15:25:37.776Z,4.39
2023-02-07T15:28:13.083Z,4.38
2023-02-07T15:30:59.249Z,4.21
2023-02-07T15:33:31.868Z,4.10
2023-02-07T15:36:02.816Z,4.03
2023-02-07T15:38:33.595Z,3.84
2023-02-07T15:41:04.713Z,3.82
2023-02-07T15:43:34.838Z,3.77
2023-02-07T15:46:08.026Z,3.68
2023-02-07T15:48:48.500Z,3.67
2023-02-07T15:51:19.347Z,3.49
2023-02-07T15:53:53.614Z,3.41
2023-02-07T15:56:25.990Z,3.41
2023-02-07T15:58:56.635Z,3.36
2023-02-07T16:01:30.054Z,3.25
2023-02-07T16:04:00.156Z,3.21
2023-02-07T16:06:34.177Z,3.13
2023-02-07T16:09:03.433Z,3.00
2023-02-07T16:11:41.587Z,2.92
2023-02-07T16:14:25.740Z,2.79
2023-02-07T16:16:55.549Z,2.79
2023-02-07T16:19:29.637Z,2.66
2023-02-07T16:22:04.352Z,2.57
2023-02-07T16:24:36.009Z,2.44
2023-02-07T16:27:06.206Z,2.33
2023-02-07T16:29:35.896Z,2.38
2023-02-07T16:32:04.405Z,2.19
2023-02-07T16:34:32.847Z,2.10
2023-02-07T16:37:00.927Z,2.01
2023-02-07T16:39:29.134Z,1.91
2023-02-07T16:42:02.468Z,1.83
2023-02-07T16:44:35.527Z,1.75
2023-02-07T16:47:06.297Z,1.70
2023-02-07T16:49:34.801Z,1.60
2023-02-07T16:52:03.204Z,1.56
2023-02-07T16:54:32.527Z,1.53
2023-02-07T16:57:04.010Z,1.42
2023-02-07T16:59:34.186Z,1.30
2023-02-07T17:02:02.409Z,1.27
2023-02-07T17:04:30.698Z,1.27
2023-02-07T17:06:59.144Z,1.19
2023-02-07T17:09:27.384Z,1.15
2023-02-07T17:11:55.689Z,1.13
2023-02-07T17:14:23.983Z,1.09
2023-02-07T17:16:53.549Z,1.02
2023-02-07T17:19:24.212Z,0.98
2023-02-07T17:21:53.470Z,0.94
2023-02-07T17:24:21.835Z,1.01
2023-02-07T17:26:53.521Z,0.96
2023-02-07T17:29:22.492Z,0.87
2023-02-07T17:31:51.370Z,0.85
2023-02-07T17:34:20.955Z,0.78
2023-02-07T17:36:51.066Z,0.75
2023-02-07T17:39:20.171Z,0.62
2023-02-07T17:41:49.243Z,0.59
2023-02-07T17:44:21.699Z,0.63
2023-02-07T17:46:49.818Z,0.52
2023-02-07T17:49:18.824Z,0.52
2023-02-07T17:51:50.157Z,0.54
2023-02-07T17:54:18.411Z,0.51
2023-02-07T17:56:47.132Z,0.55
2023-02-07T17:59:23.762Z,0.48
2023-02-07T18:01:52.168Z,0.49
2023-02-07T18:04:20.274Z,0.48
2023-02-07T18:06:50.526Z,0.48
2023-02-07T18:09:20.144Z,0.63
2023-02-07T18:11:48.127Z,0.52
2023-02-07T18:14:16.421Z,0.43
2023-02-07T18:16:44.371Z,0.41
2023-02-07T18:19:17.345Z,0.41
2023-02-07T18:21:45.353Z,0.40
2023-02-07T18:24:15.053Z,0.37
2023-02-07T18:26:43.519Z,0.36
2023-02-07T18:29:11.785Z,0.32
2023-02-07T18:31:40.242Z,0.30
2023-02-07T18:34:09.998Z,0.30
2023-02-07T18:36:40.689Z,0.25
2023-02-07T18:39:10.097Z,0.24
2023-02-07T18:41:40.097Z,0.25
2023-02-07T18:44:08.491Z,0.23
2023-02-07T18:46:37.373Z,0.24
2023-02-07T18:49:05.460Z,0.27
2023-02-07T18:51:34.915Z,0.24
2023-02-07T18:54:03.672Z,0.24
2023-02-07T18:56:35.339Z,0.16
2023-02-07T18:59:05.751Z,0.10
2023-02-07T19:01:35.432Z,0.08
2023-02-07T19:04:03.638Z,0.14
2023-02-07T19:06:34.331Z,0.10
2023-02-07T19:09:02.577Z,0.04
2023-02-07T19:11:31.034Z,0.21
2023-02-07T19:13:59.732Z,0.05
2023-02-07T19:16:29.968Z,0.00
2023-02-07T19:19:04.435Z,-0.02
2023-02-07T19:21:33.063Z,0.02
2023-02-07T19:24:06.012Z,-0.06
2023-02-07T19:26:34.308Z,-0.07
2023-02-07T19:29:05.265Z,-0.05
2023-02-07T19:31:37.741Z,0.08
2023-02-07T19:34:06.240Z,-0.09
2023-02-07T19:36:34.535Z,0.00
2023-02-07T19:39:03.202Z,-0.03
2023-02-07T19:41:31.744Z,-0.05
2023-02-07T19:44:02.599Z,-0.08
2023-02-07T19:46:35.411Z,-0.15
2023-02-07T19:49:04.515Z,-0.13
2023-02-07T19:51:33.039Z,-0.15
2023-02-07T19:54:01.945Z,-0.18
2023-02-07T19:56:33.415Z,-0.18
2023-02-07T19:59:04.657Z,-0.21
2023-02-07T20:01:37.025Z,-0.22
2023-02-07T20:04:06.539Z,-0.24
2023-02-07T20:06:36.271Z,-0.26
2023-02-07T20:09:07.110Z,-0.24
2023-02-07T20:11:35.435Z,-0.29
2023-02-07T20:14:04.182Z,-0.29
2023-02-07T20:16:36.391Z,-0.31
2023-02-07T20:19:07.187Z,-0.35
2023-02-07T20:21:37.226Z,-0.38
2023-02-07T20:24:06.556Z,-0.32
2023-02-07T20:26:37.234Z,-0.41
2023-02-07T20:29:09.368Z,-0.41
2023-02-07T20:31:40.408Z,-0.42
2023-02-07T20:34:09.255Z,-0.35
2023-02-07T20:36:41.792Z,-0.38
2023-02-07T20:39:13.907Z,-0.41
2023-02-07T20:41:43.866Z,-0.46
2023-02-07T20:44:14.854Z,-0.53
2023-02-07T20:46:46.788Z,-0.57
2023-02-07T20:49:17.508Z,-0.57
2023-02-07T20:51:49.138Z,-0.59
2023-02-07T20:54:19.064Z,-0.62
2023-02-07T20:56:47.079Z,-0.62
2023-02-07T20:59:19.790Z,-0.63
2023-02-07T21:01:50.058Z,-0.66
2023-02-07T21:04:18.696Z,-0.68
2023-02-07T21:06:47.551Z,-0.72
2023-02-07T21:09:16.276Z,-0.73
2023-02-07T21:11:46.566Z,-0.69
2023-02-07T21:14:17.656Z,-0.81
2023-02-07T21:16:46.291Z,-0.83
2023-02-07T21:19:17.779Z,-0.83
2023-02-07T21:21:47.053Z,-0.82
2023-02-07T21:24:16.269Z,-0.84
2023-02-07T21:26:44.520Z,-0.87
2023-02-07T21:29:13.694Z,-0.91
2023-02-07T21:31:42.720Z,-0.97
2023-02-07T21:34:10.793Z,-1.01
2023-02-07T21:36:40.822Z,-1.06
2023-02-07T21:39:12.678Z,-1.09
2023-02-07T21:41:44.751Z,-1.13
2023-02-07T21:44:14.733Z,-1.16
2023-02-07T21:46:46.090Z,-1.19
2023-02-07T21:49:16.489Z,-1.21
2023-02-07T21:51:48.156Z,-1.24
2023-02-07T21:54:17.660Z,-1.26
2023-02-07T21:56:46.375Z,-1.29
2023-02-07T21:59:15.694Z,-1.30
2023-02-07T22:01:45.179Z,-1.34
2023-02-07T22:04:14.325Z,-1.35
2023-02-07T22:06:44.030Z,-1.34
2023-02-07T22:09:15.557Z,-1.41
2023-02-07T22:11:44.108Z,-1.38
2023-02-07T22:14:12.596Z,-1.39
2023-02-07T22:16:41.255Z,-1.44
2023-02-07T22:19:13.647Z,-1.43
2023-02-07T22:21:41.592Z,-1.41
2023-02-07T22:24:11.426Z,-1.31
2023-02-07T22:26:42.297Z,-1.30
2023-02-07T22:29:11.419Z,-1.27
2023-02-07T22:31:41.210Z,-1.17
2023-02-07T22:34:12.976Z,-1.15
2023-02-07T22:36:44.386Z,-1.11
2023-02-07T22:39:14.368Z,-1.07
2023-02-07T22:41:44.097Z,-1.13
2023-02-07T22:44:12.222Z,-0.98
2023-02-07T22:46:41.477Z,-1.11
2023-02-07T22:49:09.593Z,-1.18
2023-02-07T22:51:38.923Z,-1.18
2023-02-07T22:54:09.380Z,-1.18
2023-02-07T22:56:38.836Z,-1.19
2023-02-07T22:59:08.786Z,-1.15
2023-02-07T23:01:39.866Z,-1.17
2023-02-07T23:04:12.390Z,-1.17
2023-02-07T23:06:41.394Z,-1.19
2023-02-07T23:09:09.773Z,-1.25
2023-02-07T23:11:38.188Z,-1.26
2023-02-07T23:14:07.397Z,-1.25
2023-02-07T23:16:37.388Z,-1.25
2023-02-07T23:19:08.431Z,-1.25
2023-02-07T23:21:36.643Z,-1.26
2023-02-07T23:24:05.534Z,-1.22
2023-02-07T23:26:34.140Z,-1.26
2023-02-07T23:29:02.401Z,-1.32
2023-02-07T23:31:30.937Z,-1.29
2023-02-07T23:34:00.613Z,-1.29
2023-02-07T23:36:28.713Z,-1.24
2023-02-07T23:38:56.920Z,-1.26
2023-02-07T23:41:25.152Z,-1.28
2023-02-07T23:43:53.068Z,-1.32
2023-02-07T23:46:21.463Z,-1.36
2023-02-07T23:48:50.375Z,-1.38
2023-02-07T23:51:20.574Z,-1.39
2023-02-07T23:53:49.478Z,-1.34
2023-02-07T23:56:19.468Z,-1.37
2023-02-07T23:58:48.592Z,-1.35
